Terminal Aerodrome Forecast
Issued by NWS

Home | Current Version | Previous Version | Text Only | Print | Product List | Glossary On
Versions: 1 2 3 4 5 6 7 8 9 10 11 12 13 14 15 16 17
000
FTUS41 KBTV 261400 AAA
TAFSLK
TAF AMD
KSLK 261400Z 2614/2712 24010KT P6SM SCT035 BKN100
     FM270000 23005KT P6SM OVC070
     FM270700 19004KT 5SM -SHRA BR OVC050
     FM270900 20004KT 3SM -SHRA BR OVC045=

USA.gov is the U.S. government's official web portal to all federal, state and local government web resources and services.